createdAt,value
2023-05-12T00:00:41.746Z,8.62
2023-05-12T00:05:43.350Z,8.56
2023-05-12T00:10:46.363Z,8.58
2023-05-12T00:15:47.948Z,8.58
2023-05-12T00:20:49.500Z,8.96
2023-05-12T00:25:55.085Z,9.09
2023-05-12T00:30:56.825Z,9.23
2023-05-12T00:36:00.525Z,9.01
2023-05-12T00:41:03.560Z,8.94
2023-05-12T00:46:06.011Z,9.36
2023-05-12T00:51:08.852Z,9.40
2023-05-12T00:56:13.320Z,9.47
2023-05-12T01:01:15.175Z,9.27
2023-05-12T01:06:23.858Z,9.18
2023-05-12T01:11:29.616Z,9.05
2023-05-12T01:16:35.883Z,8.80
2023-05-12T01:21:37.906Z,8.99
2023-05-12T01:26:40.904Z,9.31
2023-05-12T01:31:43.115Z,9.18
2023-05-12T01:36:44.920Z,8.84
2023-05-12T01:41:50.472Z,8.83
2023-05-12T01:46:52.129Z,9.14
2023-05-12T01:51:53.710Z,9.10
2023-05-12T01:56:59.790Z,9.07
2023-05-12T02:02:01.453Z,9.06
2023-05-12T02:07:03.261Z,9.38
2023-05-12T02:12:07.240Z,9.60
2023-05-12T02:17:08.824Z,9.67
2023-05-12T02:22:10.438Z,9.69
2023-05-12T02:27:13.495Z,9.69
2023-05-12T02:32:15.094Z,9.65
2023-05-12T02:37:16.841Z,9.29
2023-05-12T02:42:24.159Z,9.40
2023-05-12T02:47:25.767Z,9.46
2023-05-12T02:52:28.696Z,9.53
2023-05-12T02:57:31.654Z,9.64
2023-05-12T03:02:33.379Z,9.78
2023-05-12T03:07:35.240Z,9.80
2023-05-12T03:12:40.342Z,9.82
2023-05-12T03:17:42.360Z,9.87
2023-05-12T03:22:44.099Z,9.90
2023-05-12T03:27:49.493Z,9.29
2023-05-12T03:32:51.180Z,9.65
2023-05-12T03:37:52.725Z,9.53
2023-05-12T03:42:55.672Z,9.97
2023-05-12T03:47:57.372Z,10.05
2023-05-12T03:52:58.920Z,10.07
2023-05-12T03:58:01.884Z,9.82
2023-05-12T04:03:03.669Z,9.89
2023-05-12T04:08:05.856Z,9.75
2023-05-12T04:13:08.929Z,9.92
2023-05-12T04:18:10.487Z,9.88
2023-05-12T04:23:12.119Z,9.96
2023-05-12T04:28:19.670Z,10.10
2023-05-12T04:38:36.741Z,9.50
2023-05-12T04:49:01.335Z,9.83
2023-05-12T04:54:04.263Z,9.97
2023-05-12T04:59:07.269Z,10.04
2023-05-12T05:04:10.136Z,10.00
2023-05-12T05:09:14.050Z,9.98
2023-05-12T05:14:17.078Z,9.90
2023-05-12T05:19:23.376Z,9.53
2023-05-12T05:24:37.355Z,9.56
2023-05-12T05:29:42.615Z,9.26
2023-05-12T05:34:45.558Z,9.39
2023-05-12T05:39:48.180Z,9.45
2023-05-12T05:44:51.178Z,9.50
2023-05-12T05:49:52.834Z,9.31
2023-05-12T05:54:54.459Z,9.82
2023-05-12T05:59:57.484Z,9.93
2023-05-12T06:05:01.824Z,9.93
2023-05-12T06:10:03.888Z,10.05
2023-05-12T06:15:08.292Z,10.04
2023-05-12T06:20:10.527Z,10.23
2023-05-12T06:25:15.505Z,10.23
2023-05-12T06:30:18.667Z,10.25
2023-05-12T06:35:21.972Z,10.13
2023-05-12T06:40:23.746Z,10.30
2023-05-12T06:45:26.707Z,10.45
2023-05-12T06:50:28.288Z,10.34
2023-05-12T06:55:32.256Z,10.82
2023-05-12T07:00:35.222Z,10.81
2023-05-12T07:05:36.953Z,11.20
2023-05-12T07:10:38.593Z,11.17
2023-05-12T07:15:41.643Z,11.31
2023-05-12T07:20:45.995Z,11.39
2023-05-12T07:25:47.713Z,11.03
2023-05-12T07:30:53.928Z,11.46
2023-05-12T07:35:55.511Z,11.27
2023-05-12T07:40:57.177Z,11.49
2023-05-12T07:46:02.410Z,11.55
2023-05-12T07:51:04.400Z,11.77
2023-05-12T07:56:07.668Z,11.61
2023-05-12T08:01:13.161Z,11.80
2023-05-12T08:06:14.733Z,12.01
2023-05-12T08:11:16.314Z,12.38
2023-05-12T08:16:19.296Z,12.20
2023-05-12T08:21:28.070Z,11.70
2023-05-12T08:26:35.304Z,11.71
2023-05-12T08:31:39.524Z,12.38
2023-05-12T08:36:41.387Z,13.40
2023-05-12T08:41:45.222Z,13.00
2023-05-12T08:46:48.915Z,12.97
2023-05-12T08:51:58.124Z,12.93
2023-05-12T09:02:09.414Z,12.98
2023-05-12T09:07:14.018Z,12.93
2023-05-12T09:12:19.695Z,12.29
2023-05-12T09:17:25.315Z,12.53
2023-05-12T09:22:30.290Z,13.29
2023-05-12T09:27:34.325Z,13.04
2023-05-12T09:32:39.696Z,12.59
2023-05-12T09:37:41.396Z,12.74
2023-05-12T09:42:43.130Z,12.28
2023-05-12T09:47:46.234Z,12.82
2023-05-12T09:52:50.327Z,12.91
2023-05-12T09:57:54.289Z,13.16
2023-05-12T10:03:02.722Z,13.45
2023-05-12T10:08:07.364Z,13.67
2023-05-12T10:13:09.386Z,14.13
2023-05-12T10:18:12.854Z,14.34
2023-05-12T10:23:17.607Z,14.13
2023-05-12T10:28:22.267Z,13.90
2023-05-12T10:33:27.471Z,13.74
2023-05-12T10:38:36.234Z,13.37
2023-05-12T10:43:40.259Z,14.05
2023-05-12T10:48:54.709Z,14.06
2023-05-12T10:53:57.475Z,13.01
2023-05-12T10:59:14.765Z,13.11
2023-05-12T11:04:20.549Z,13.80
2023-05-12T11:09:24.674Z,13.15
2023-05-12T11:14:29.268Z,13.73
2023-05-12T11:19:34.497Z,13.45
2023-05-12T11:24:40.066Z,13.69
2023-05-12T11:29:42.572Z,14.04
2023-05-12T11:34:45.619Z,13.59
2023-05-12T11:39:54.343Z,14.18
2023-05-12T11:44:55.983Z,14.54
2023-05-12T11:50:06.091Z,14.04
2023-05-12T11:55:09.392Z,14.37
2023-05-12T12:00:12.422Z,14.54
2023-05-12T12:05:55.104Z,14.05
2023-05-12T12:10:58.186Z,13.67
2023-05-12T12:15:59.814Z,13.16
2023-05-12T12:21:01.588Z,13.36
2023-05-12T12:26:06.762Z,12.79
2023-05-12T12:31:08.506Z,12.77
2023-05-12T12:36:10.289Z,12.58
2023-05-12T12:41:13.208Z,12.20
2023-05-12T12:46:14.919Z,12.48
2023-05-12T12:51:16.788Z,12.34
2023-05-12T12:56:27.180Z,12.39
2023-05-12T13:01:28.817Z,12.43
2023-05-12T13:06:30.465Z,12.14
2023-05-12T13:11:33.398Z,12.58
2023-05-12T13:16:35.000Z,12.73
2023-05-12T13:21:36.753Z,12.00
2023-05-12T13:26:39.782Z,12.23
2023-05-12T13:31:41.496Z,11.94
2023-05-12T13:36:45.232Z,12.36
2023-05-12T13:41:48.231Z,12.75
2023-05-12T13:46:49.944Z,12.49
2023-05-12T13:51:52.897Z,13.31
2023-05-12T13:56:58.012Z,13.50
2023-05-12T14:01:59.902Z,13.61
2023-05-12T14:07:03.114Z,13.41
2023-05-12T14:12:09.856Z,13.80
2023-05-12T14:17:11.480Z,12.09
2023-05-12T14:22:25.530Z,12.13
2023-05-12T14:27:29.523Z,13.30
2023-05-12T14:32:31.162Z,13.11
2023-05-12T14:37:32.848Z,13.05
2023-05-12T14:42:43.270Z,12.93
2023-05-12T14:47:45.057Z,12.68
2023-05-12T14:52:46.650Z,11.56
2023-05-12T14:57:49.611Z,11.13
2023-05-12T15:02:51.308Z,11.49
2023-05-12T15:07:52.889Z,11.78
2023-05-12T15:12:55.934Z,11.21
2023-05-12T15:17:57.529Z,11.43
2023-05-12T15:22:59.271Z,11.63
2023-05-12T15:28:02.217Z,11.85
2023-05-12T15:33:04.037Z,11.41
2023-05-12T15:38:05.818Z,12.04
2023-05-12T15:43:11.152Z,11.46
2023-05-12T15:48:12.840Z,11.33
2023-05-12T15:53:17.975Z,11.70
2023-05-12T15:58:21.062Z,11.32
2023-05-12T16:03:23.349Z,11.59
2023-05-12T16:08:25.218Z,10.84
2023-05-12T16:13:30.627Z,10.85
2023-05-12T16:18:32.587Z,11.24
2023-05-12T16:23:34.260Z,10.82
2023-05-12T16:28:37.318Z,10.90
2023-05-12T16:33:39.071Z,10.72
2023-05-12T16:44:45.692Z,10.96
2023-05-12T16:49:49.985Z,11.03
2023-05-12T16:54:51.609Z,11.04
2023-05-12T17:00:02.145Z,10.87
2023-05-12T17:05:04.082Z,11.24
2023-05-12T17:10:06.285Z,10.95
2023-05-12T17:15:13.332Z,11.05
2023-05-12T17:20:16.035Z,11.07
2023-05-12T17:25:21.741Z,10.52
2023-05-12T17:30:25.794Z,10.85
2023-05-12T17:35:27.536Z,10.49
2023-05-12T17:40:31.270Z,10.14
2023-05-12T17:45:36.677Z,10.18
2023-05-12T17:50:38.263Z,10.29
2023-05-12T17:55:39.898Z,10.31
2023-05-12T18:00:45.201Z,10.09
2023-05-12T18:05:46.789Z,10.36
2023-05-12T18:10:50.608Z,10.15
2023-05-12T18:15:55.856Z,10.01
2023-05-12T18:20:57.513Z,9.62
2023-05-12T18:25:59.114Z,9.64
2023-05-12T18:31:15.098Z,10.01
2023-05-12T18:36:18.722Z,9.64
2023-05-12T18:41:27.793Z,9.94
2023-05-12T18:46:33.157Z,9.67
2023-05-12T18:51:34.851Z,9.72
2023-05-12T18:56:36.869Z,9.61
2023-05-12T19:01:39.988Z,9.67
2023-05-12T19:06:41.741Z,9.95
2023-05-12T19:11:43.328Z,9.73
2023-05-12T19:16:49.028Z,9.57
2023-05-12T19:27:54.516Z,9.48
2023-05-12T19:32:59.619Z,9.69
2023-05-12T19:38:08.742Z,9.64
2023-05-12T19:43:10.388Z,9.58
2023-05-12T19:48:23.747Z,9.46
2023-05-12T19:53:25.267Z,9.37
2023-05-12T19:58:26.840Z,9.53
2023-05-12T20:03:29.846Z,9.72
2023-05-12T20:08:31.424Z,9.57
2023-05-12T20:13:33.178Z,9.73
2023-05-12T20:18:36.150Z,9.55
2023-05-12T20:23:37.706Z,9.89
2023-05-12T20:28:39.417Z,9.82
2023-05-12T20:33:42.493Z,9.71
2023-05-12T20:38:45.586Z,9.92
2023-05-12T20:43:47.182Z,9.77
2023-05-12T20:48:51.353Z,9.96
2023-05-12T20:53:53.304Z,9.63
2023-05-12T20:58:55.082Z,9.23
2023-05-12T21:03:58.094Z,9.52
2023-05-12T21:09:02.782Z,9.67
2023-05-12T21:14:04.362Z,9.48
2023-05-12T21:19:07.740Z,9.34
2023-05-12T21:24:09.441Z,9.35
2023-05-12T21:29:11.039Z,9.08
2023-05-12T21:34:16.306Z,9.21
2023-05-12T21:39:20.895Z,8.95
2023-05-12T21:44:22.560Z,8.94
2023-05-12T21:49:34.312Z,9.08
2023-05-12T21:54:40.023Z,8.98
2023-05-12T21:59:43.103Z,8.90
2023-05-12T22:04:48.517Z,8.63
2023-05-12T22:09:50.156Z,8.74
2023-05-12T22:20:10.037Z,8.72
2023-05-12T22:25:14.072Z,8.46
2023-05-12T22:30:15.662Z,8.57
2023-05-12T22:35:19.114Z,8.57
2023-05-12T22:40:20.898Z,8.48
2023-05-12T22:45:22.656Z,8.52
2023-05-12T22:50:25.606Z,8.56
2023-05-12T22:55:27.865Z,8.44
2023-05-12T23:00:29.512Z,8.66
2023-05-12T23:05:35.792Z,8.65
2023-05-12T23:10:40.139Z,8.67
2023-05-12T23:15:43.065Z,8.29
2023-05-12T23:20:46.047Z,8.50
2023-05-12T23:25:55.159Z,8.56
2023-05-12T23:30:59.496Z,8.53
2023-05-12T23:36:02.520Z,8.45
2023-05-12T23:41:04.151Z,8.47
2023-05-12T23:46:05.750Z,8.48
2023-05-12T23:51:08.866Z,8.45
2023-05-12T23:56:10.379Z,8.49
